Time;durP1;ratioP1;P1;durP2;ratioP2;P2;SDS_P1;SDS_P2;PMS_P1;PMS_P2;Temp;Humidity;BMP_temperature;BMP_pressure;BME280_temperature;BME280_humidity;BME280_pressure;Samples;Min_cycle;Max_cycle;Signal;HPM_P1;HPM_P2
2022/04/28 00:01:48;;;;;;;4.95;4.05;;;12.30;50.30;;;;;;5045386;28;20041;-50
2022/04/28 00:04:17;;;;;;;9.82;4.13;;;12.30;50.30;;;;;;5044284;28;20053;-50
2022/04/28 00:06:44;;;;;;;7.55;4.95;;;12.30;50.50;;;;;;5051485;28;20052;-51
2022/04/28 00:09:13;;;;;;;7.38;4.40;;;12.20;50.50;;;;;;5052621;28;20116;-52
2022/04/28 00:11:43;;;;;;;5.18;4.28;;;12.20;50.50;;;;;;5046201;28;20044;-49
2022/04/28 00:14:09;;;;;;;5.50;4.28;;;12.10;50.50;;;;;;5044050;28;20386;-48
2022/04/28 00:16:36;;;;;;;5.55;4.60;;;12.10;50.60;;;;;;5037801;28;20452;-48
2022/04/28 00:19:07;;;;;;;8.10;4.88;;;12.10;50.70;;;;;;5038692;28;20554;-48
2022/04/28 00:21:34;;;;;;;7.18;4.60;;;12.00;50.80;;;;;;5033425;28;20037;-49
2022/04/28 00:24:01;;;;;;;5.60;4.45;;;12.00;50.70;;;;;;5039390;28;20475;-49
2022/04/28 00:26:28;;;;;;;7.05;4.82;;;11.90;50.70;;;;;;5050950;28;20575;-52
2022/04/28 00:28:58;;;;;;;4.82;3.70;;;11.90;50.90;;;;;;5050024;28;20496;-48
2022/04/28 00:31:27;;;;;;;6.50;4.68;;;11.90;51.00;;;;;;5043546;28;20050;-49
2022/04/28 00:33:57;;;;;;;5.90;4.40;;;11.80;50.90;;;;;;5052318;28;20033;-47
2022/04/28 00:36:25;;;;;;;5.72;4.47;;;11.80;51.20;;;;;;5047329;28;20056;-48
2022/04/28 00:38:54;;;;;;;6.57;4.22;;;11.70;51.20;;;;;;5038623;28;20049;-49
2022/04/28 00:41:21;;;;;;;7.32;4.20;;;11.70;51.20;;;;;;5048690;28;20056;-52
2022/04/28 00:43:55;;;;;;;6.68;4.00;;;11.70;51.40;;;;;;5044986;28;20053;-52
2022/04/28 00:46:22;;;;;;;4.93;4.05;;;11.60;51.60;;;;;;5049516;28;20095;-50
2022/04/28 00:51:42;;;;;;;5.95;4.18;;;11.50;51.70;;;;;;5040982;28;20060;-51
2022/04/28 00:54:09;;;;;;;4.65;4.13;;;11.50;51.40;;;;;;5049830;28;20048;-50
2022/04/28 00:56:44;;;;;;;6.65;3.95;;;11.50;51.60;;;;;;5040946;28;20504;-51
2022/04/28 00:59:12;;;;;;;6.78;4.03;;;11.50;51.70;;;;;;5045024;28;20517;-49
2022/04/28 01:01:39;;;;;;;4.82;3.72;;;11.40;51.70;;;;;;5041761;28;20071;-49
2022/04/28 01:04:06;;;;;;;5.63;4.43;;;11.40;51.90;;;;;;5051633;28;20139;-48
2022/04/28 01:06:39;;;;;;;8.30;4.60;;;11.30;52.00;;;;;;5024788;28;20107;-48
2022/04/28 01:09:09;;;;;;;8.48;5.15;;;11.30;52.00;;;;;;5040756;28;20055;-50
2022/04/28 01:11:36;;;;;;;5.88;4.00;;;11.30;52.30;;;;;;5032383;28;20445;-49
2022/04/28 01:14:16;;;;;;;7.20;4.47;;;11.30;52.20;;;;;;5047477;28;20114;-51
2022/04/28 01:16:57;;;;;;;4.75;4.22;;;11.30;52.60;;;;;;5042048;28;20508;-49
2022/04/28 01:19:25;;;;;;;6.70;4.63;;;11.20;52.10;;;;;;5039028;28;20521;-51
2022/04/28 01:21:55;;;;;;;5.68;3.58;;;11.20;52.10;;;;;;5034108;28;20042;-48
2022/04/28 01:24:23;;;;;;;5.72;4.43;;;11.20;52.30;;;;;;5031260;28;20045;-48
2022/04/28 01:26:53;;;;;;;6.97;4.32;;;11.10;52.20;;;;;;5030716;28;20050;-47
2022/04/28 01:29:23;;;;;;;7.45;4.47;;;11.10;52.50;;;;;;5047522;28;20041;-47
2022/04/28 01:31:54;;;;;;;6.30;4.30;;;11.10;52.30;;;;;;5040946;28;20037;-50
2022/04/28 01:34:21;;;;;;;6.10;4.40;;;11.00;52.40;;;;;;5029499;28;20080;-50
2022/04/28 01:36:51;;;;;;;5.20;4.70;;;11.00;52.50;;;;;;5046130;28;20037;-47
2022/04/28 01:39:20;;;;;;;7.10;5.05;;;11.00;52.50;;;;;;5041818;28;20045;-51
2022/04/28 01:41:48;;;;;;;6.97;4.47;;;11.00;52.90;;;;;;5049749;28;20045;-52
2022/04/28 01:44:16;;;;;;;8.52;5.00;;;10.90;52.70;;;;;;5045015;28;20041;-49
2022/04/28 01:46:47;;;;;;;5.30;4.35;;;10.90;52.70;;;;;;5036381;28;20041;-47
2022/04/28 01:49:29;;;;;;;8.53;4.77;;;10.90;52.80;;;;;;5049045;28;20524;-52
2022/04/28 01:55:24;;;;;;;6.45;4.45;;;10.90;52.70;;;;;;5046043;28;20061;-49
2022/04/28 01:58:10;;;;;;;5.57;4.43;;;10.80;52.60;;;;;;5042599;28;20052;-49
2022/04/28 02:00:52;;;;;;;5.57;4.32;;;10.80;52.60;;;;;;5046152;28;20136;-47
2022/04/28 02:03:22;;;;;;;7.28;4.53;;;10.80;52.70;;;;;;5048434;28;20048;-51
2022/04/28 02:05:49;;;;;;;8.35;5.28;;;10.70;52.80;;;;;;5039643;28;20044;-49
2022/04/28 02:08:16;;;;;;;8.02;5.57;;;10.70;53.00;;;;;;5048570;28;20075;-48
2022/04/28 02:10:48;;;;;;;6.20;4.53;;;10.70;53.10;;;;;;5039377;28;20072;-48
2022/04/28 02:13:35;;;;;;;7.10;4.72;;;10.60;53.00;;;;;;5047202;28;20076;-50
2022/04/28 02:16:21;;;;;;;8.88;4.78;;;10.60;53.00;;;;;;5045307;28;20051;-52
2022/04/28 02:18:59;;;;;;;5.82;4.65;;;10.60;53.10;;;;;;5037422;28;20072;-52
2022/04/28 02:21:31;;;;;;;5.85;4.70;;;10.60;53.20;;;;;;5032921;28;20049;-51
2022/04/28 02:23:58;;;;;;;5.95;4.88;;;10.60;53.30;;;;;;5030113;28;20084;-50
2022/04/28 02:26:27;;;;;;;10.18;5.50;;;10.60;53.40;;;;;;5032755;28;20072;-52
2022/04/28 02:28:56;;;;;;;7.60;4.82;;;10.50;53.40;;;;;;5048429;28;20045;-51
2022/04/28 02:31:29;;;;;;;7.45;5.30;;;10.50;53.50;;;;;;5035263;28;20132;-49
2022/04/28 02:33:58;;;;;;;8.45;4.95;;;10.50;53.50;;;;;;5041667;28;20060;-49
2022/04/28 02:36:34;;;;;;;6.03;4.70;;;10.50;53.60;;;;;;5043608;28;20034;-51
2022/04/28 02:39:01;;;;;;;7.72;5.15;;;10.50;53.50;;;;;;5034051;28;20038;-51
2022/04/28 02:41:32;;;;;;;6.93;5.63;;;10.50;54.20;;;;;;5040210;28;20037;-51
2022/04/28 02:44:00;;;;;;;10.18;5.75;;;10.40;53.60;;;;;;5033126;28;20045;-50
2022/04/28 02:46:29;;;;;;;6.75;5.47;;;10.40;53.70;;;;;;5027682;28;20042;-51
2022/04/28 02:49:02;;;;;;;6.47;5.20;;;10.40;53.80;;;;;;5038753;28;20532;-51
2022/04/28 02:51:36;;;;;;;7.60;4.78;;;10.40;53.90;;;;;;5045520;28;20041;-51
2022/04/28 02:54:04;;;;;;;8.18;4.60;;;10.40;53.80;;;;;;5040437;28;20045;-51
2022/04/28 02:56:35;;;;;;;8.40;5.35;;;10.30;53.80;;;;;;5046554;28;20052;-51
2022/04/28 02:59:03;;;;;;;6.22;5.03;;;10.30;53.80;;;;;;5057646;28;20041;-50
2022/04/28 03:01:32;;;;;;;5.68;4.80;;;10.30;53.90;;;;;;5036504;28;20056;-52
2022/04/28 03:04:02;;;;;;;7.93;5.20;;;10.30;53.80;;;;;;5028651;28;20111;-46
2022/04/28 03:12:05;;;;;;;7.50;5.20;;;10.20;54.20;;;;;;5036281;28;20037;-51
2022/04/28 03:14:33;;;;;;;9.77;5.45;;;10.10;53.80;;;;;;5027861;28;20559;-48
2022/04/28 03:17:04;;;;;;;7.15;5.15;;;10.10;53.90;;;;;;5040270;28;20030;-50
2022/04/28 03:19:33;;;;;;;6.80;5.40;;;10.10;54.00;;;;;;5040632;28;20033;-50
2022/04/28 03:22:02;;;;;;;10.10;5.88;;;10.00;54.00;;;;;;5029430;28;20501;-48
2022/04/28 03:24:29;;;;;;;8.95;6.53;;;10.10;54.20;;;;;;5027841;28;20152;-48
2022/04/28 03:27:04;;;;;;;5.90;5.25;;;10.00;54.30;;;;;;5029473;28;20049;-49
2022/04/28 03:29:30;;;;;;;6.72;5.88;;;10.00;54.40;;;;;;5047782;28;20041;-51
2022/04/28 03:31:57;;;;;;;6.40;5.70;;;10.00;54.40;;;;;;5040045;28;20412;-50
2022/04/28 03:34:38;;;;;;;6.88;5.72;;;10.00;54.50;;;;;;5044868;28;20051;-51
2022/04/28 03:37:05;;;;;;;9.05;5.80;;;9.90;54.60;;;;;;5045746;28;20389;-49
2022/04/28 03:39:37;;;;;;;9.20;5.30;;;9.90;54.40;;;;;;5040832;28;20064;-51
2022/04/28 03:42:06;;;;;;;9.57;6.35;;;9.90;54.60;;;;;;5033469;28;20436;-51
2022/04/28 03:44:35;;;;;;;10.48;6.97;;;9.90;54.70;;;;;;5047692;28;20106;-48
2022/04/28 03:47:04;;;;;;;8.87;5.43;;;9.90;54.80;;;;;;5044328;28;20516;-47
2022/04/28 03:49:32;;;;;;;8.50;5.13;;;9.80;54.70;;;;;;5035334;28;20313;-51
2022/04/28 03:51:59;;;;;;;10.85;6.05;;;9.80;54.70;;;;;;5052403;28;20037;-49
2022/04/28 03:54:26;;;;;;;7.22;5.55;;;9.80;54.70;;;;;;5032248;28;20068;-47
2022/04/28 03:56:54;;;;;;;8.32;6.60;;;9.80;54.80;;;;;;5045080;28;20045;-50
2022/04/28 03:59:21;;;;;;;9.32;6.65;;;9.80;55.00;;;;;;5044146;28;20041;-48
2022/04/28 04:02:11;;;;;;;10.13;6.50;;;9.80;55.00;;;;;;5034076;28;20102;-48
2022/04/28 04:04:39;;;;;;;7.43;6.03;;;9.80;54.90;;;;;;5044372;28;20141;-52
2022/04/28 04:07:11;;;;;;;10.93;5.57;;;9.70;54.90;;;;;;5061263;28;20037;-50
2022/04/28 04:09:38;;;;;;;9.38;6.82;;;9.70;55.00;;;;;;5041264;28;20099;-50
2022/04/28 04:12:10;;;;;;;;;;;9.70;55.00;;;;;;5035077;28;20037;-51
2022/04/28 04:14:57;;;;;;;8.32;5.88;;;9.70;55.30;;;;;;5042916;28;19921;-48
2022/04/28 04:17:39;;;;;;;10.20;6.32;;;9.70;54.40;;;;;;5040561;28;20049;-50
2022/04/28 04:20:07;;;;;;;7.45;5.80;;;9.70;56.20;;;;;;5042150;28;20135;-51
2022/04/28 04:22:33;;;;;;;11.88;6.40;;;9.60;55.00;;;;;;5040711;28;20547;-49
2022/04/28 04:25:01;;;;;;;9.20;5.85;;;9.60;55.00;;;;;;5045038;28;20558;-51
2022/04/28 04:27:35;;;;;;;6.95;5.82;;;9.60;55.10;;;;;;5041163;28;20045;-51
2022/04/28 04:33:05;;;;;;;8.82;5.90;;;9.60;55.10;;;;;;5042895;28;20037;-49
2022/04/28 04:35:32;;;;;;;8.20;5.53;;;9.50;55.10;;;;;;5041137;28;20039;-51
2022/04/28 04:37:59;;;;;;;9.80;5.90;;;9.50;55.10;;;;;;5039828;28;20132;-51
2022/04/28 04:40:32;;;;;;;9.00;6.47;;;9.50;55.30;;;;;;5062139;28;20412;-49
2022/04/28 04:43:03;;;;;;;13.75;6.03;;;9.50;55.50;;;;;;5042516;28;20076;-49
2022/04/28 04:45:32;;;;;;;10.82;6.10;;;9.50;55.60;;;;;;5033639;28;20049;-51
2022/04/28 04:48:18;;;;;;;13.98;7.03;;;9.50;55.80;;;;;;5049178;28;20152;-51
2022/04/28 04:50:48;;;;;;;12.93;7.75;;;9.50;56.00;;;;;;5046895;28;20045;-47
2022/04/28 04:53:30;;;;;;;14.32;7.25;;;9.50;56.20;;;;;;5043561;28;20104;-51
2022/04/28 04:55:58;;;;;;;10.55;7.20;;;9.50;56.30;;;;;;5037155;28;20045;-51
2022/04/28 04:58:26;;;;;;;13.40;7.97;;;9.50;56.50;;;;;;5032453;28;20038;-51
2022/04/28 05:00:58;;;;;;;8.45;6.60;;;9.60;56.70;;;;;;5035024;28;20053;-50
2022/04/28 05:03:34;;;;;;;13.50;7.20;;;9.60;57.00;;;;;;5040646;28;20560;-51
2022/04/28 05:06:02;;;;;;;11.20;7.03;;;9.60;56.80;;;;;;5047447;28;20056;-51
2022/04/28 05:08:49;;;;;;;14.00;7.95;;;9.70;57.00;;;;;;5049034;28;20055;-51
2022/04/28 05:11:17;;;;;;;10.48;7.68;;;9.70;56.90;;;;;;5039973;28;20057;-49
2022/04/28 05:14:05;;;;;;;10.82;7.70;;;9.70;57.10;;;;;;5040354;28;20044;-49
2022/04/28 05:16:32;;;;;;;9.75;7.32;;;9.80;57.10;;;;;;5049423;28;20045;-51
2022/04/28 05:19:22;;;;;;;11.40;7.82;;;9.80;57.30;;;;;;5043446;28;20045;-52
2022/04/28 05:22:21;;;;;;;11.05;7.95;;;9.90;57.30;;;;;;5034981;28;20124;-50
2022/04/28 05:25:06;;;;;;;10.13;7.47;;;9.90;57.20;;;;;;5048019;28;20099;-49
2022/04/28 05:27:53;;;;;;;16.92;7.85;;;10.00;57.30;;;;;;5022012;28;20457;-48
2022/04/28 05:30:42;;;;;;;12.10;7.63;;;10.10;57.30;;;;;;5034609;28;20048;-50
2022/04/28 05:33:26;;;;;;;10.40;6.95;;;10.10;57.20;;;;;;5030751;28;20053;-50
2022/04/28 05:36:16;;;;;;;11.70;8.00;;;10.10;57.20;;;;;;5047594;28;20059;-50
2022/04/28 05:38:47;;;;;;;10.77;7.43;;;10.20;57.20;;;;;;5040891;28;20056;-51
2022/04/28 05:41:14;;;;;;;14.50;7.90;;;10.30;57.20;;;;;;5036359;28;20220;-51
2022/04/28 05:46:33;;;;;;;13.70;7.90;;;10.40;57.20;;;;;;5036814;28;20053;-47
2022/04/28 05:49:08;;;;;;;13.95;7.78;;;10.40;57.70;;;;;;5042269;28;20071;-49
2022/04/28 05:51:35;;;;;;;;;;;10.50;57.20;;;;;;5037376;28;20095;-51
2022/04/28 05:54:03;;;;;;;11.98;7.85;;;10.60;57.40;;;;;;5027344;28;20143;-49
2022/04/28 05:56:33;;;;;;;13.55;8.48;;;10.60;56.40;;;;;;5057872;28;20042;-49
2022/04/28 05:59:02;;;;;;;13.98;9.13;;;10.60;56.90;;;;;;5046710;28;20044;-51
2022/04/28 06:01:49;;;;;;;14.13;7.90;;;10.70;56.90;;;;;;5036835;28;20042;-48
2022/04/28 06:04:22;;;;;;;11.32;8.10;;;10.70;56.70;;;;;;5030044;28;20057;-51
2022/04/28 06:06:50;;;;;;;14.57;8.20;;;10.80;56.70;;;;;;5047903;28;20072;-47
2022/04/28 06:09:27;;;;;;;14.20;8.23;;;10.80;56.50;;;;;;5028980;28;20049;-48
2022/04/28 06:11:56;;;;;;;16.80;9.40;;;10.80;56.80;;;;;;5028973;28;20043;-48
2022/04/28 06:14:27;;;;;;;12.35;9.05;;;10.90;56.60;;;;;;5046245;28;20029;-48
2022/04/28 06:17:25;;;;;;;15.43;8.43;;;11.00;56.70;;;;;;5041110;28;20094;-51
2022/04/28 06:19:52;;;;;;;;;;;11.00;56.70;;;;;;5034009;28;20041;-51
2022/04/28 06:22:57;;;;;;;12.60;7.93;;;11.00;56.70;;;;;;5038767;28;20223;-48
2022/04/28 06:25:26;;;;;;;15.18;8.77;;;11.10;56.00;;;;;;5031463;28;20539;-51
2022/04/28 06:27:59;;;;;;;13.82;8.82;;;11.10;56.10;;;;;;5041535;28;20409;-51
2022/04/28 06:30:26;;;;;;;18.63;9.02;;;11.20;56.20;;;;;;5036267;28;20049;-49
2022/04/28 06:33:05;;;;;;;15.02;9.77;;;11.20;56.40;;;;;;5029648;28;20695;-51
2022/04/28 06:35:55;;;;;;;15.50;9.32;;;11.20;56.30;;;;;;5037170;28;20163;-51
2022/04/28 06:38:32;;;;;;;16.25;9.85;;;11.30;56.30;;;;;;5040766;28;20540;-50
2022/04/28 06:41:03;;;;;;;14.98;9.85;;;11.30;56.40;;;;;;5048241;28;20508;-49
2022/04/28 06:43:39;;;;;;;14.65;9.82;;;11.30;56.60;;;;;;5043776;28;20041;-48
2022/04/28 06:46:28;;;;;;;16.20;9.50;;;11.40;56.70;;;;;;5038416;28;20518;-51
2022/04/28 06:49:15;;;;;;;13.90;9.23;;;11.40;56.40;;;;;;5030712;28;20060;-48
2022/04/28 06:51:57;;;;;;;14.85;9.85;;;11.50;56.50;;;;;;5036311;28;20037;-51
2022/04/28 06:54:47;;;;;;;17.13;10.00;;;11.50;56.50;;;;;;5004606;28;20129;-48
2022/04/28 06:57:19;;;;;;;13.68;9.75;;;11.50;56.40;;;;;;5036777;28;20447;-48
2022/04/28 06:59:46;;;;;;;16.23;9.95;;;11.60;56.50;;;;;;5035246;28;20034;-51
2022/04/28 07:02:17;;;;;;;15.80;10.45;;;11.60;56.40;;;;;;5032440;28;20056;-48
2022/04/28 07:04:46;;;;;;;16.85;9.48;;;11.60;57.00;;;;;;5038935;28;20453;-51
2022/04/28 07:07:16;;;;;;;15.48;10.45;;;11.70;56.40;;;;;;5035323;28;20060;-50
2022/04/28 07:09:51;;;;;;;17.25;10.43;;;11.70;56.70;;;;;;5025619;28;20460;-48
2022/04/28 07:12:42;;;;;;;18.63;9.55;;;11.80;57.00;;;;;;5031981;28;20049;-50
2022/04/28 07:15:27;;;;;;;11.63;9.43;;;11.80;56.90;;;;;;5045084;28;20126;-47
2022/04/28 07:18:26;;;;;;;15.75;9.77;;;11.80;56.70;;;;;;5049914;28;20547;-51
2022/04/28 07:20:53;;;;;;;14.63;10.50;;;11.90;56.70;;;;;;5051223;28;20040;-48
2022/04/28 07:23:23;;;;;;;17.77;10.48;;;11.90;56.60;;;;;;5044596;28;20476;-50
2022/04/28 07:25:53;;;;;;;15.38;10.32;;;12.00;56.70;;;;;;5045393;28;20474;-49
2022/04/28 07:28:20;;;;;;;16.75;11.02;;;12.10;56.90;;;;;;5041570;28;20568;-49
2022/04/28 07:31:10;;;;;;;16.98;9.77;;;12.10;57.10;;;;;;5017183;28;20049;-47
2022/04/28 07:33:58;;;;;;;15.90;9.38;;;12.20;56.90;;;;;;5044827;28;20072;-47
2022/04/28 07:36:44;;;;;;;13.93;10.13;;;12.20;56.50;;;;;;5031901;28;20528;-48
2022/04/28 07:39:18;;;;;;;16.23;10.10;;;12.30;56.50;;;;;;5032057;28;20405;-51
2022/04/28 07:42:06;;;;;;;14.52;9.85;;;12.30;56.40;;;;;;5035211;28;20072;-48
2022/04/28 07:44:37;;;;;;;19.50;11.18;;;12.40;56.70;;;;;;5044351;28;20048;-48
2022/04/28 07:47:06;;;;;;;18.05;10.80;;;12.40;57.10;;;;;;5044331;28;20042;-49
2022/04/28 07:49:57;;;;;;;17.60;10.95;;;12.50;56.80;;;;;;5046291;28;20100;-50
2022/04/28 07:52:26;;;;;;;;;;;12.60;56.60;;;;;;5047357;28;20045;-48
2022/04/28 07:54:54;;;;;;;14.73;10.43;;;12.60;56.40;;;;;;5036703;28;19921;-51
2022/04/28 07:57:30;;;;;;;13.85;10.30;;;12.70;56.40;;;;;;5033209;28;20049;-52
2022/04/28 07:59:58;;;;;;;16.67;10.70;;;12.70;57.10;;;;;;5048161;28;20060;-52
2022/04/28 08:02:42;;;;;;;14.98;10.20;;;12.80;56.40;;;;;;5045472;28;20406;-48
2022/04/28 08:05:13;;;;;;;17.52;11.35;;;12.80;56.50;;;;;;5046054;28;20516;-49
2022/04/28 08:07:45;;;;;;;14.43;10.23;;;12.90;56.40;;;;;;5048156;28;20049;-48
2022/04/28 08:10:15;;;;;;;15.52;10.00;;;13.00;56.30;;;;;;5043038;28;20125;-49
2022/04/28 08:12:44;;;;;;;21.23;11.35;;;13.00;56.00;;;;;;5038555;28;20095;-48
2022/04/28 08:15:47;;;;;;;14.13;10.25;;;13.10;56.20;;;;;;5012800;28;20056;-48
2022/04/28 08:18:17;;;;;;;13.32;10.85;;;13.10;56.50;;;;;;5047559;28;20156;-51
2022/04/28 08:20:46;;;;;;;11.30;9.35;;;13.20;56.20;;;;;;5051286;28;20049;-52
2022/04/28 08:23:17;;;;;;;13.98;9.50;;;13.30;56.00;;;;;;5033076;28;20428;-51
2022/04/28 08:25:49;;;;;;;13.80;9.60;;;13.30;56.00;;;;;;5033292;28;20488;-51
2022/04/28 08:28:18;;;;;;;15.65;9.95;;;13.40;55.80;;;;;;5043359;28;20119;-52
2022/04/28 08:30:47;;;;;;;18.17;11.45;;;13.40;55.50;;;;;;5042176;28;20034;-52
2022/04/28 08:33:21;;;;;;;14.68;9.57;;;13.50;55.30;;;;;;5049236;28;20052;-50
2022/04/28 08:35:50;;;;;;;17.27;10.60;;;13.50;55.10;;;;;;5043769;28;20128;-52
2022/04/28 08:38:21;;;;;;;15.63;10.48;;;13.60;55.10;;;;;;5047837;28;20059;-48
2022/04/28 08:40:55;;;;;;;16.45;9.95;;;13.60;55.00;;;;;;5043060;28;20489;-51
2022/04/28 08:43:44;;;;;;;16.02;9.75;;;13.70;55.20;;;;;;5052382;28;20045;-50
2022/04/28 08:49:00;;;;;;;16.92;11.93;;;13.80;55.30;;;;;;5042186;28;20087;-48
2022/04/28 08:51:43;;;;;;;18.63;11.63;;;13.90;54.80;;;;;;5030595;28;20420;-51
2022/04/28 08:54:14;;;;;;;18.92;12.07;;;13.90;55.10;;;;;;5038385;28;20540;-50
2022/04/28 08:56:42;;;;;;;14.75;11.23;;;14.00;55.50;;;;;;5044737;28;20409;-48
2022/04/28 08:59:14;;;;;;;18.13;11.38;;;14.00;55.60;;;;;;5046600;28;20053;-48
2022/04/28 09:01:42;;;;;;;18.05;10.85;;;14.10;56.00;;;;;;5043561;28;20043;-52
2022/04/28 09:04:35;;;;;;;19.23;11.68;;;14.20;56.10;;;;;;5021991;28;20052;-51
2022/04/28 09:07:35;;;;;;;17.05;11.40;;;14.30;55.50;;;;;;5047668;28;20148;-49
2022/04/28 09:10:29;;;;;;;16.10;10.95;;;14.40;56.20;;;;;;5028486;28;20068;-47
2022/04/28 09:16:24;;;;;;;19.17;11.10;;;14.50;55.00;;;;;;5041969;28;20045;-52
2022/04/28 09:18:57;;;;;;;18.85;11.65;;;14.60;54.50;;;;;;5041868;28;20572;-49
2022/04/28 09:21:29;;;;;;;15.40;11.10;;;14.70;54.40;;;;;;5039314;28;20059;-49
2022/04/28 09:24:03;;;;;;;15.52;10.77;;;14.70;54.40;;;;;;5053909;28;20499;-48
2022/04/28 09:26:35;;;;;;;17.83;11.00;;;14.70;54.50;;;;;;5044696;28;20044;-48
2022/04/28 09:29:12;;;;;;;14.63;10.57;;;14.80;54.80;;;;;;5039114;28;20495;-47
2022/04/28 09:31:41;;;;;;;14.57;10.55;;;14.90;55.00;;;;;;5046061;28;20048;-47
2022/04/28 09:34:48;;;;;;;15.38;9.93;;;14.90;54.20;;;;;;5041802;28;20164;-48
2022/04/28 09:37:38;;;;;;;13.00;9.57;;;15.00;53.80;;;;;;5038653;28;20108;-50
2022/04/28 09:43:02;;;;;;;14.90;10.13;;;15.10;53.70;;;;;;5043029;28;20037;-48
2022/04/28 09:45:39;;;;;;;14.05;9.52;;;15.20;53.70;;;;;;5040732;28;20452;-49
2022/04/28 09:48:10;;;;;;;14.80;9.98;;;15.20;53.50;;;;;;5035555;28;20050;-49
2022/04/28 09:50:50;;;;;;;13.48;9.70;;;15.30;53.30;;;;;;5038543;28;20049;-50
2022/04/28 09:53:44;;;;;;;12.35;9.43;;;15.40;53.60;;;;;;5016147;28;20064;-50
2022/04/28 09:56:24;;;;;;;14.98;11.18;;;15.50;53.40;;;;;;5039459;28;20049;-51
2022/04/28 09:59:01;;;;;;;12.13;9.80;;;15.50;53.30;;;;;;5036905;28;20045;-48
2022/04/28 10:01:37;;;;;;;14.35;10.50;;;15.60;53.20;;;;;;5038757;28;20041;-50
2022/04/28 10:04:09;;;;;;;15.20;10.10;;;15.60;52.60;;;;;;5037649;28;20444;-48
2022/04/28 10:07:09;;;;;;;;;;;15.70;52.20;;;;;;5028355;28;20063;-50
2022/04/28 10:09:41;;;;;;;11.18;7.85;;;15.80;52.00;;;;;;5053540;28;19931;-49
2022/04/28 10:12:15;;;;;;;13.73;10.05;;;15.80;51.70;;;;;;5041360;28;20140;-52
2022/04/28 10:15:05;;;;;;;16.52;10.30;;;15.90;51.60;;;;;;5042685;28;20048;-49
2022/04/28 10:17:54;;;;;;;17.48;10.90;;;15.90;51.80;;;;;;5037567;28;20083;-53
2022/04/28 10:20:33;;;;;;;16.17;9.20;;;15.90;52.00;;;;;;5036234;28;20045;-52
2022/04/28 10:32:33;;;;;;;;;;;;;;;;;;;;;
2022/04/28 10:35:07;;;;;;;18.05;11.07;;;16.20;50.30;;;;;;5029798;28;20056;-53
2022/04/28 10:37:45;;;;;;;16.05;10.40;;;16.20;50.50;;;;;;5028393;28;20099;-53
2022/04/28 10:40:20;;;;;;;15.57;10.23;;;16.30;50.00;;;;;;5036453;28;20029;-53
2022/04/28 10:42:57;;;;;;;15.48;11.07;;;16.30;50.40;;;;;;5035529;28;20574;-48
2022/04/28 10:45:25;;;;;;;12.70;10.25;;;16.40;51.00;;;;;;5048701;28;20122;-51
2022/04/28 10:48:24;;;;;;;15.30;9.45;;;16.40;50.40;;;;;;5045642;28;20504;-51
2022/04/28 10:51:21;;;;;;;17.50;10.70;;;16.50;50.80;;;;;;5043516;28;20044;-53
2022/04/28 10:54:02;;;;;;;12.20;9.98;;;16.50;50.20;;;;;;5044525;28;20496;-52
2022/04/28 10:56:41;;;;;;;13.15;9.45;;;16.60;49.60;;;;;;5044625;28;20049;-52
2022/04/28 10:59:34;;;;;;;15.30;10.57;;;16.60;49.40;;;;;;5044994;28;20043;-53
2022/04/28 11:02:07;;;;;;;13.05;10.07;;;16.70;48.20;;;;;;5035147;28;20067;-52
2022/04/28 11:04:39;;;;;;;11.45;9.88;;;16.70;49.00;;;;;;5028585;28;20049;-50
2022/04/28 11:07:09;;;;;;;12.35;9.80;;;16.70;49.50;;;;;;5039242;28;20378;-53
2022/04/28 11:09:41;;;;;;;12.55;9.48;;;16.80;49.50;;;;;;5042044;28;20061;-53
2022/04/28 11:12:22;;;;;;;13.18;10.02;;;16.90;49.10;;;;;;5043241;28;20493;-52
2022/04/28 11:15:03;;;;;;;14.05;9.38;;;16.90;49.30;;;;;;5038518;28;20037;-53
2022/04/28 11:17:32;;;;;;;14.70;9.85;;;17.00;50.10;;;;;;5038963;28;20048;-52
2022/04/28 11:20:04;;;;;;;12.88;9.02;;;17.00;49.50;;;;;;5037487;28;20455;-52
2022/04/28 11:22:48;;;;;;;12.20;8.82;;;17.10;48.50;;;;;;5035249;28;20521;-52
2022/04/28 11:25:19;;;;;;;14.05;9.85;;;17.20;49.20;;;;;;5037114;28;20470;-53
2022/04/28 11:27:50;;;;;;;12.82;9.05;;;17.30;48.00;;;;;;5041651;28;20041;-49
2022/04/28 11:30:26;;;;;;;12.10;9.35;;;17.30;48.70;;;;;;5038793;28;20041;-50
2022/04/28 11:32:59;;;;;;;9.98;8.20;;;17.40;47.70;;;;;;5036116;28;20100;-51
2022/04/28 11:35:34;;;;;;;11.60;9.02;;;17.40;48.40;;;;;;5043014;28;20067;-53
2022/04/28 11:38:03;;;;;;;12.50;9.50;;;17.50;48.10;;;;;;5037685;28;20098;-52
2022/04/28 11:40:33;;;;;;;11.43;8.90;;;17.60;48.00;;;;;;5029846;28;20045;-51
2022/04/28 11:43:02;;;;;;;12.98;8.85;;;17.60;47.70;;;;;;5043125;28;20056;-53
2022/04/28 11:45:31;;;;;;;10.57;8.90;;;17.70;47.40;;;;;;5044825;28;20408;-51
2022/04/28 11:48:03;;;;;;;14.75;9.38;;;17.80;46.80;;;;;;5038981;28;20045;-53
2022/04/28 11:50:35;;;;;;;13.77;8.93;;;17.90;48.10;;;;;;5040430;28;20041;-49
2022/04/28 11:53:03;;;;;;;11.57;9.27;;;18.00;47.60;;;;;;5040783;28;20068;-48
2022/04/28 11:55:38;;;;;;;12.60;9.00;;;18.10;46.40;;;;;;5040657;28;20053;-53
2022/04/28 11:58:09;;;;;;;12.80;8.80;;;18.10;46.10;;;;;;5039369;28;20079;-49
2022/04/28 12:00:45;;;;;;;11.73;8.07;;;18.20;45.70;;;;;;5039498;28;20141;-52
2022/04/28 12:03:26;;;;;;;13.80;8.25;;;18.20;45.30;;;;;;5040744;28;20505;-49
2022/04/28 12:05:56;;;;;;;11.02;8.05;;;18.30;44.60;;;;;;5042410;28;20041;-52
2022/04/28 12:08:24;;;;;;;10.27;8.07;;;18.30;45.00;;;;;;5032746;28;20045;-47
2022/04/28 12:19:23;;;;;;;11.30;8.25;;;18.50;44.40;;;;;;5045378;28;20124;-52
2022/04/28 12:22:02;;;;;;;10.40;8.57;;;18.60;44.60;;;;;;5042414;28;20363;-50
2022/04/28 12:24:33;;;;;;;10.45;8.68;;;18.60;44.80;;;;;;5046755;28;20131;-48
2022/04/28 12:27:06;;;;;;;11.57;8.63;;;18.70;44.80;;;;;;5046350;28;20061;-53
2022/04/28 12:29:54;;;;;;;10.55;9.02;;;18.70;44.10;;;;;;5039520;28;20592;-51
2022/04/28 12:32:22;;;;;;;12.98;8.55;;;18.80;44.40;;;;;;5041472;28;20049;-50
2022/04/28 12:35:03;;;;;;;13.68;8.00;;;18.80;43.70;;;;;;5033737;28;20528;-49
2022/04/28 12:37:38;;;;;;;10.93;8.70;;;18.90;43.50;;;;;;5049876;28;20121;-53
2022/04/28 12:40:09;;;;;;;11.90;8.88;;;18.90;43.40;;;;;;5047972;28;20063;-50
2022/04/28 12:42:48;;;;;;;13.40;8.75;;;19.10;43.70;;;;;;5042809;28;20052;-50
2022/04/28 12:45:33;;;;;;;12.98;9.75;;;19.20;42.80;;;;;;5038199;28;20045;-53
2022/04/28 12:47:59;;;;;;;11.48;8.27;;;19.20;42.90;;;;;;5043507;28;20444;-53
2022/04/28 12:50:26;;;;;;;11.95;7.95;;;19.30;43.00;;;;;;5045807;28;20073;-49
2022/04/28 12:52:56;;;;;;;13.98;8.90;;;19.40;43.10;;;;;;5039401;28;20084;-51
2022/04/28 12:55:36;;;;;;;11.73;8.77;;;19.40;42.90;;;;;;5041721;28;20045;-48
2022/04/28 12:58:03;;;;;;;12.10;7.55;;;19.50;42.60;;;;;;5041301;28;20091;-49
2022/04/28 13:00:38;;;;;;;12.20;8.73;;;19.60;43.20;;;;;;5041743;28;20587;-52
2022/04/28 13:03:07;;;;;;;16.95;8.35;;;19.70;42.10;;;;;;5041163;28;20037;-48
2022/04/28 13:05:34;;;;;;;12.13;8.02;;;19.80;42.20;;;;;;5039582;28;20055;-49
2022/04/28 13:08:03;;;;;;;11.85;7.53;;;19.80;42.30;;;;;;5044609;28;20041;-51
2022/04/28 13:10:32;;;;;;;10.45;7.18;;;19.90;41.60;;;;;;4999056;28;20069;-52
2022/04/28 13:12:59;;;;;;;9.82;6.97;;;20.00;41.80;;;;;;5024253;28;20505;-49
2022/04/28 13:15:26;;;;;;;16.67;8.80;;;20.10;42.20;;;;;;5015567;28;20489;-53
2022/04/28 13:17:52;;;;;;;17.35;8.45;;;20.20;42.30;;;;;;5038137;28;20037;-51
2022/04/28 13:20:19;;;;;;;8.70;7.28;;;20.40;42.80;;;;;;5027393;28;20090;-52
2022/04/28 13:22:46;;;;;;;13.77;8.15;;;20.60;41.70;;;;;;5035511;28;20045;-48
2022/04/28 13:25:15;;;;;;;11.23;7.20;;;20.90;41.10;;;;;;5023749;28;20041;-51
2022/04/28 13:27:43;;;;;;;12.70;7.35;;;21.10;40.40;;;;;;5035285;28;20583;-50
2022/04/28 13:30:10;;;;;;;9.60;7.70;;;21.30;40.50;;;;;;5018933;28;20060;-53
2022/04/28 13:32:37;;;;;;;12.00;7.40;;;21.60;40.30;;;;;;5029746;28;20555;-50
2022/04/28 13:35:06;;;;;;;10.25;7.43;;;22.00;39.90;;;;;;5014268;28;20040;-51
2022/04/28 13:37:32;;;;;;;12.88;5.82;;;22.60;40.40;;;;;;5042195;28;20063;-51
2022/04/28 13:39:59;;;;;;;11.18;6.95;;;23.50;41.30;;;;;;5037253;28;20087;-51
2022/04/28 13:42:27;;;;;;;8.88;6.22;;;24.40;41.20;;;;;;5050294;28;20041;-49
2022/04/28 13:45:04;;;;;;;7.90;6.50;;;25.60;40.30;;;;;;5045518;28;20385;-49
2022/04/28 13:47:31;;;;;;;10.07;6.57;;;26.80;39.70;;;;;;5044188;28;20045;-48
2022/04/28 13:49:59;;;;;;;7.55;6.57;;;27.90;37.30;;;;;;5047169;28;20067;-49
2022/04/28 13:52:25;;;;;;;7.10;6.10;;;28.90;35.50;;;;;;5041755;28;20045;-49
2022/04/28 13:54:59;;;;;;;7.68;6.55;;;29.80;34.60;;;;;;5049568;28;20040;-52
2022/04/28 13:57:28;;;;;;;5.97;5.38;;;30.70;33.10;;;;;;5044683;28;20094;-49
2022/04/28 13:59:55;;;;;;;6.28;5.68;;;31.50;31.90;;;;;;5042407;28;20096;-49
2022/04/28 14:02:24;;;;;;;7.10;6.40;;;32.20;31.40;;;;;;5049044;28;20044;-53